sensor_id;sensor_type;location;lat;lon;timestamp;temperature;humidity
17381;DHT22;8808;52.478;13.378;2023-06-22T00:00:49;21.70;99.90
17381;DHT22;8808;52.478;13.378;2023-06-22T00:03:17;21.70;99.90
17381;DHT22;8808;52.478;13.378;2023-06-22T00:05:45;21.70;99.90
17381;DHT22;8808;52.478;13.378;2023-06-22T00:08:12;21.70;99.90
17381;DHT22;8808;52.478;13.378;2023-06-22T00:10:39;21.60;99.90
17381;DHT22;8808;52.478;13.378;2023-06-22T00:13:08;21.50;99.90
17381;DHT22;8808;52.478;13.378;2023-06-22T00:15:37;21.50;99.90
17381;DHT22;8808;52.478;13.378;2023-06-22T00:18:04;21.50;99.90
17381;DHT22;8808;52.478;13.378;2023-06-22T00:20:31;21.40;99.90
17381;DHT22;8808;52.478;13.378;2023-06-22T00:22:59;21.40;99.90
17381;DHT22;8808;52.478;13.378;2023-06-22T00:25:26;21.40;99.90
17381;DHT22;8808;52.478;13.378;2023-06-22T00:27:53;21.40;99.90
17381;DHT22;8808;52.478;13.378;2023-06-22T00:30:21;21.40;99.90
17381;DHT22;8808;52.478;13.378;2023-06-22T00:32:48;21.30;99.90
17381;DHT22;8808;52.478;13.378;2023-06-22T00:35:15;21.20;99.90
17381;DHT22;8808;52.478;13.378;2023-06-22T00:37:42;21.20;99.90
17381;DHT22;8808;52.478;13.378;2023-06-22T00:40:10;21.00;99.90
17381;DHT22;8808;52.478;13.378;2023-06-22T00:42:38;21.20;99.90
17381;DHT22;8808;52.478;13.378;2023-06-22T00:45:06;21.30;99.90
17381;DHT22;8808;52.478;13.378;2023-06-22T00:47:36;21.20;99.90
17381;DHT22;8808;52.478;13.378;2023-06-22T00:50:06;21.10;99.90
17381;DHT22;8808;52.478;13.378;2023-06-22T00:52:34;21.20;99.90
17381;DHT22;8808;52.478;13.378;2023-06-22T00:55:02;21.20;99.90
17381;DHT22;8808;52.478;13.378;2023-06-22T00:57:29;21.20;99.90
17381;DHT22;8808;52.478;13.378;2023-06-22T00:59:57;21.10;99.90
17381;DHT22;8808;52.478;13.378;2023-06-22T01:02:39;21.20;99.90
17381;DHT22;8808;52.478;13.378;2023-06-22T01:05:07;21.10;99.90
17381;DHT22;8808;52.478;13.378;2023-06-22T01:07:47;21.10;99.90
17381;DHT22;8808;52.478;13.378;2023-06-22T01:10:24;21.10;99.90
17381;DHT22;8808;52.478;13.378;2023-06-22T01:12:56;21.10;99.90
17381;DHT22;8808;52.478;13.378;2023-06-22T01:15:30;21.10;99.90
17381;DHT22;8808;52.478;13.378;2023-06-22T01:17:59;21.00;99.90
17381;DHT22;8808;52.478;13.378;2023-06-22T01:20:29;21.00;99.90
17381;DHT22;8808;52.478;13.378;2023-06-22T01:23:05;20.90;99.90
17381;DHT22;8808;52.478;13.378;2023-06-22T01:25:38;21.00;99.90
17381;DHT22;8808;52.478;13.378;2023-06-22T01:28:24;21.00;99.90
17381;DHT22;8808;52.478;13.378;2023-06-22T01:30:54;20.90;99.90
17381;DHT22;8808;52.478;13.378;2023-06-22T01:33:29;20.80;99.90
17381;DHT22;8808;52.478;13.378;2023-06-22T01:35:57;20.80;99.90
17381;DHT22;8808;52.478;13.378;2023-06-22T01:38:25;20.80;99.90
17381;DHT22;8808;52.478;13.378;2023-06-22T01:40:52;20.80;99.90
17381;DHT22;8808;52.478;13.378;2023-06-22T01:43:20;20.80;99.90
17381;DHT22;8808;52.478;13.378;2023-06-22T01:45:48;20.80;99.90
17381;DHT22;8808;52.478;13.378;2023-06-22T01:48:17;20.70;99.90
17381;DHT22;8808;52.478;13.378;2023-06-22T01:50:44;20.60;99.90
17381;DHT22;8808;52.478;13.378;2023-06-22T01:53:11;20.70;99.90
17381;DHT22;8808;52.478;13.378;2023-06-22T01:55:38;20.60;99.90
17381;DHT22;8808;52.478;13.378;2023-06-22T01:58:05;20.50;99.90
17381;DHT22;8808;52.478;13.378;2023-06-22T02:00:35;20.60;99.90
17381;DHT22;8808;52.478;13.378;2023-06-22T02:03:08;20.70;99.90
17381;DHT22;8808;52.478;13.378;2023-06-22T02:05:42;20.70;99.90
17381;DHT22;8808;52.478;13.378;2023-06-22T02:08:12;20.80;99.90
17381;DHT22;8808;52.478;13.378;2023-06-22T02:10:43;20.90;99.90
17381;DHT22;8808;52.478;13.378;2023-06-22T02:13:11;20.80;99.90
17381;DHT22;8808;52.478;13.378;2023-06-22T02:15:39;20.80;99.90
17381;DHT22;8808;52.478;13.378;2023-06-22T02:18:07;20.80;99.90
17381;DHT22;8808;52.478;13.378;2023-06-22T02:20:38;20.80;99.90
17381;DHT22;8808;52.478;13.378;2023-06-22T02:23:05;20.70;99.90
17381;DHT22;8808;52.478;13.378;2023-06-22T02:25:33;20.70;99.90
17381;DHT22;8808;52.478;13.378;2023-06-22T02:28:00;20.70;99.90
17381;DHT22;8808;52.478;13.378;2023-06-22T02:30:27;20.60;99.90
17381;DHT22;8808;52.478;13.378;2023-06-22T02:32:54;20.50;99.90
17381;DHT22;8808;52.478;13.378;2023-06-22T02:35:24;20.50;99.90
17381;DHT22;8808;52.478;13.378;2023-06-22T02:37:52;20.50;99.90
17381;DHT22;8808;52.478;13.378;2023-06-22T02:40:20;20.50;99.90
17381;DHT22;8808;52.478;13.378;2023-06-22T02:42:46;20.60;99.90
17381;DHT22;8808;52.478;13.378;2023-06-22T02:45:14;20.70;99.90
17381;DHT22;8808;52.478;13.378;2023-06-22T02:47:41;20.80;99.90
17381;DHT22;8808;52.478;13.378;2023-06-22T02:50:08;20.80;99.90
17381;DHT22;8808;52.478;13.378;2023-06-22T02:52:35;20.80;99.90
17381;DHT22;8808;52.478;13.378;2023-06-22T02:55:07;20.90;99.90
17381;DHT22;8808;52.478;13.378;2023-06-22T02:57:34;20.90;99.90
17381;DHT22;8808;52.478;13.378;2023-06-22T03:00:03;20.90;99.90
17381;DHT22;8808;52.478;13.378;2023-06-22T03:02:39;20.90;99.90
17381;DHT22;8808;52.478;13.378;2023-06-22T03:05:06;20.80;99.90
17381;DHT22;8808;52.478;13.378;2023-06-22T03:07:35;20.80;99.90
17381;DHT22;8808;52.478;13.378;2023-06-22T03:10:03;20.70;99.90
17381;DHT22;8808;52.478;13.378;2023-06-22T03:12:31;20.80;99.90
17381;DHT22;8808;52.478;13.378;2023-06-22T03:14:58;20.90;99.90
17381;DHT22;8808;52.478;13.378;2023-06-22T03:17:25;21.00;99.90
17381;DHT22;8808;52.478;13.378;2023-06-22T03:19:52;20.90;99.90
17381;DHT22;8808;52.478;13.378;2023-06-22T03:22:20;20.90;99.90
17381;DHT22;8808;52.478;13.378;2023-06-22T03:24:47;20.90;99.90
17381;DHT22;8808;52.478;13.378;2023-06-22T03:27:14;20.80;99.90
17381;DHT22;8808;52.478;13.378;2023-06-22T03:29:42;20.80;99.90
17381;DHT22;8808;52.478;13.378;2023-06-22T03:32:10;20.70;99.90
17381;DHT22;8808;52.478;13.378;2023-06-22T03:34:37;20.70;99.90
17381;DHT22;8808;52.478;13.378;2023-06-22T03:37:04;20.70;99.90
17381;DHT22;8808;52.478;13.378;2023-06-22T03:39:31;20.70;99.90
17381;DHT22;8808;52.478;13.378;2023-06-22T03:41:58;20.70;99.90
17381;DHT22;8808;52.478;13.378;2023-06-22T03:44:26;20.70;99.90
17381;DHT22;8808;52.478;13.378;2023-06-22T03:46:54;20.80;99.90
17381;DHT22;8808;52.478;13.378;2023-06-22T03:49:21;20.70;99.90
17381;DHT22;8808;52.478;13.378;2023-06-22T03:51:48;20.60;99.90
17381;DHT22;8808;52.478;13.378;2023-06-22T03:54:15;20.60;99.90
17381;DHT22;8808;52.478;13.378;2023-06-22T03:56:42;20.60;99.90
17381;DHT22;8808;52.478;13.378;2023-06-22T03:59:08;20.60;99.90
17381;DHT22;8808;52.478;13.378;2023-06-22T04:01:36;20.50;99.90
17381;DHT22;8808;52.478;13.378;2023-06-22T04:04:05;20.60;99.90
17381;DHT22;8808;52.478;13.378;2023-06-22T04:06:32;20.60;99.90
17381;DHT22;8808;52.478;13.378;2023-06-22T04:08:59;20.70;99.90
17381;DHT22;8808;52.478;13.378;2023-06-22T04:11:26;20.70;99.90
17381;DHT22;8808;52.478;13.378;2023-06-22T04:13:53;20.70;99.90
17381;DHT22;8808;52.478;13.378;2023-06-22T04:16:21;20.70;99.90
17381;DHT22;8808;52.478;13.378;2023-06-22T04:18:48;21.00;99.90
17381;DHT22;8808;52.478;13.378;2023-06-22T04:21:16;20.70;99.90
17381;DHT22;8808;52.478;13.378;2023-06-22T04:23:45;20.70;99.90
17381;DHT22;8808;52.478;13.378;2023-06-22T04:26:12;20.80;99.90
17381;DHT22;8808;52.478;13.378;2023-06-22T04:28:39;20.90;99.90
17381;DHT22;8808;52.478;13.378;2023-06-22T04:31:06;20.90;99.90
17381;DHT22;8808;52.478;13.378;2023-06-22T04:33:33;21.00;99.90
17381;DHT22;8808;52.478;13.378;2023-06-22T04:36:00;21.00;99.90
17381;DHT22;8808;52.478;13.378;2023-06-22T04:38:29;21.20;99.90
17381;DHT22;8808;52.478;13.378;2023-06-22T04:40:58;21.10;99.90
17381;DHT22;8808;52.478;13.378;2023-06-22T04:43:26;21.20;99.90
17381;DHT22;8808;52.478;13.378;2023-06-22T04:45:55;21.30;99.90
17381;DHT22;8808;52.478;13.378;2023-06-22T04:48:29;21.30;99.90
17381;DHT22;8808;52.478;13.378;2023-06-22T04:50:58;21.20;99.90
17381;DHT22;8808;52.478;13.378;2023-06-22T04:53:31;21.40;99.90
17381;DHT22;8808;52.478;13.378;2023-06-22T04:55:58;21.50;99.90
17381;DHT22;8808;52.478;13.378;2023-06-22T04:58:25;21.60;99.90
17381;DHT22;8808;52.478;13.378;2023-06-22T05:00:54;21.60;99.90
17381;DHT22;8808;52.478;13.378;2023-06-22T05:03:22;21.60;99.90
17381;DHT22;8808;52.478;13.378;2023-06-22T05:05:51;21.60;99.90
17381;DHT22;8808;52.478;13.378;2023-06-22T05:08:19;21.40;99.90
17381;DHT22;8808;52.478;13.378;2023-06-22T05:10:47;21.50;99.90
17381;DHT22;8808;52.478;13.378;2023-06-22T05:13:14;21.50;99.90
17381;DHT22;8808;52.478;13.378;2023-06-22T05:15:42;21.60;99.90
17381;DHT22;8808;52.478;13.378;2023-06-22T05:18:09;21.50;99.90
17381;DHT22;8808;52.478;13.378;2023-06-22T05:20:39;21.50;99.90
17381;DHT22;8808;52.478;13.378;2023-06-22T05:23:06;21.50;99.90
17381;DHT22;8808;52.478;13.378;2023-06-22T05:25:33;21.50;99.90
17381;DHT22;8808;52.478;13.378;2023-06-22T05:28:01;21.60;99.90
17381;DHT22;8808;52.478;13.378;2023-06-22T05:30:36;21.60;99.90
17381;DHT22;8808;52.478;13.378;2023-06-22T05:33:03;21.70;99.90
17381;DHT22;8808;52.478;13.378;2023-06-22T05:35:31;21.80;99.90
17381;DHT22;8808;52.478;13.378;2023-06-22T05:37:58;21.90;99.90
17381;DHT22;8808;52.478;13.378;2023-06-22T05:40:25;22.10;99.90
17381;DHT22;8808;52.478;13.378;2023-06-22T05:42:52;22.10;99.90
17381;DHT22;8808;52.478;13.378;2023-06-22T05:45:21;22.10;99.90
17381;DHT22;8808;52.478;13.378;2023-06-22T05:47:47;22.00;99.90
17381;DHT22;8808;52.478;13.378;2023-06-22T05:50:14;22.00;99.90
17381;DHT22;8808;52.478;13.378;2023-06-22T05:52:42;21.90;99.90
17381;DHT22;8808;52.478;13.378;2023-06-22T05:55:09;21.90;99.90
17381;DHT22;8808;52.478;13.378;2023-06-22T05:57:36;22.00;99.90
17381;DHT22;8808;52.478;13.378;2023-06-22T06:00:03;21.80;99.90
17381;DHT22;8808;52.478;13.378;2023-06-22T06:02:35;21.90;99.90
17381;DHT22;8808;52.478;13.378;2023-06-22T06:05:02;21.90;99.90
17381;DHT22;8808;52.478;13.378;2023-06-22T06:07:29;21.90;99.90
17381;DHT22;8808;52.478;13.378;2023-06-22T06:09:56;21.90;99.90
17381;DHT22;8808;52.478;13.378;2023-06-22T06:12:23;21.90;99.90
17381;DHT22;8808;52.478;13.378;2023-06-22T06:14:50;21.90;99.90
17381;DHT22;8808;52.478;13.378;2023-06-22T06:17:19;21.90;99.90
17381;DHT22;8808;52.478;13.378;2023-06-22T06:19:47;21.90;99.90
17381;DHT22;8808;52.478;13.378;2023-06-22T06:22:14;22.00;99.90
17381;DHT22;8808;52.478;13.378;2023-06-22T06:24:41;22.00;99.90
17381;DHT22;8808;52.478;13.378;2023-06-22T06:29:35;22.20;99.90
17381;DHT22;8808;52.478;13.378;2023-06-22T06:32:02;22.40;99.90
17381;DHT22;8808;52.478;13.378;2023-06-22T06:34:29;22.60;99.90
17381;DHT22;8808;52.478;13.378;2023-06-22T06:36:57;22.60;99.90
17381;DHT22;8808;52.478;13.378;2023-06-22T06:39:24;22.60;99.90
17381;DHT22;8808;52.478;13.378;2023-06-22T06:41:51;22.60;99.90
17381;DHT22;8808;52.478;13.378;2023-06-22T06:44:18;22.90;99.90
17381;DHT22;8808;52.478;13.378;2023-06-22T06:46:45;23.00;99.90
17381;DHT22;8808;52.478;13.378;2023-06-22T06:49:12;23.20;99.90
17381;DHT22;8808;52.478;13.378;2023-06-22T06:51:39;23.10;99.90
17381;DHT22;8808;52.478;13.378;2023-06-22T06:54:08;23.20;99.90
17381;DHT22;8808;52.478;13.378;2023-06-22T06:56:35;23.30;99.90
17381;DHT22;8808;52.478;13.378;2023-06-22T06:59:02;23.40;99.90
17381;DHT22;8808;52.478;13.378;2023-06-22T07:01:29;23.60;99.90
17381;DHT22;8808;52.478;13.378;2023-06-22T07:03:59;23.60;99.90
17381;DHT22;8808;52.478;13.378;2023-06-22T07:06:25;23.60;99.90
17381;DHT22;8808;52.478;13.378;2023-06-22T07:08:55;23.60;99.90
17381;DHT22;8808;52.478;13.378;2023-06-22T07:11:23;23.70;99.90
17381;DHT22;8808;52.478;13.378;2023-06-22T07:13:50;23.80;99.90
17381;DHT22;8808;52.478;13.378;2023-06-22T07:16:17;23.90;99.90
17381;DHT22;8808;52.478;13.378;2023-06-22T07:18:44;24.00;99.90
17381;DHT22;8808;52.478;13.378;2023-06-22T07:21:11;24.10;99.90
17381;DHT22;8808;52.478;13.378;2023-06-22T07:23:38;24.00;99.90
17381;DHT22;8808;52.478;13.378;2023-06-22T07:26:05;24.10;99.90
17381;DHT22;8808;52.478;13.378;2023-06-22T07:28:35;24.20;99.90
17381;DHT22;8808;52.478;13.378;2023-06-22T07:31:04;24.30;99.90
17381;DHT22;8808;52.478;13.378;2023-06-22T07:33:30;24.10;99.90
17381;DHT22;8808;52.478;13.378;2023-06-22T07:35:57;24.20;99.90
17381;DHT22;8808;52.478;13.378;2023-06-22T07:38:24;24.20;99.90
17381;DHT22;8808;52.478;13.378;2023-06-22T07:40:51;24.10;99.90
17381;DHT22;8808;52.478;13.378;2023-06-22T07:43:18;24.10;99.90
17381;DHT22;8808;52.478;13.378;2023-06-22T07:45:50;24.10;99.90
17381;DHT22;8808;52.478;13.378;2023-06-22T07:48:20;24.10;99.90
17381;DHT22;8808;52.478;13.378;2023-06-22T07:50:48;24.10;99.90
17381;DHT22;8808;52.478;13.378;2023-06-22T07:53:15;24.10;99.90
17381;DHT22;8808;52.478;13.378;2023-06-22T07:55:42;24.10;99.90
17381;DHT22;8808;52.478;13.378;2023-06-22T07:58:09;24.10;99.90
17381;DHT22;8808;52.478;13.378;2023-06-22T08:00:36;24.10;99.90
17381;DHT22;8808;52.478;13.378;2023-06-22T08:03:04;24.10;99.90
17381;DHT22;8808;52.478;13.378;2023-06-22T08:05:31;24.10;99.90
17381;DHT22;8808;52.478;13.378;2023-06-22T08:07:58;24.10;99.90
17381;DHT22;8808;52.478;13.378;2023-06-22T08:10:25;24.00;99.90
17381;DHT22;8808;52.478;13.378;2023-06-22T08:12:52;24.00;99.90
17381;DHT22;8808;52.478;13.378;2023-06-22T08:15:19;24.00;99.90
17381;DHT22;8808;52.478;13.378;2023-06-22T08:17:47;24.10;99.90
17381;DHT22;8808;52.478;13.378;2023-06-22T08:20:16;24.00;99.90
17381;DHT22;8808;52.478;13.378;2023-06-22T08:22:43;24.00;99.90
17381;DHT22;8808;52.478;13.378;2023-06-22T08:25:10;24.00;99.90
17381;DHT22;8808;52.478;13.378;2023-06-22T08:27:39;24.10;99.90
17381;DHT22;8808;52.478;13.378;2023-06-22T08:30:07;24.20;99.90
17381;DHT22;8808;52.478;13.378;2023-06-22T08:32:34;24.10;99.90
17381;DHT22;8808;52.478;13.378;2023-06-22T08:35:01;24.00;99.90
17381;DHT22;8808;52.478;13.378;2023-06-22T08:37:29;24.10;99.90
17381;DHT22;8808;52.478;13.378;2023-06-22T08:39:58;24.20;99.90
17381;DHT22;8808;52.478;13.378;2023-06-22T08:42:25;24.20;99.90
17381;DHT22;8808;52.478;13.378;2023-06-22T08:44:52;24.30;99.90
17381;DHT22;8808;52.478;13.378;2023-06-22T08:47:19;24.30;99.90
17381;DHT22;8808;52.478;13.378;2023-06-22T08:49:47;24.40;99.90
17381;DHT22;8808;52.478;13.378;2023-06-22T08:52:14;24.40;99.90
17381;DHT22;8808;52.478;13.378;2023-06-22T08:54:42;24.50;99.90
17381;DHT22;8808;52.478;13.378;2023-06-22T08:57:09;24.50;99.90
17381;DHT22;8808;52.478;13.378;2023-06-22T08:59:36;24.60;99.90
17381;DHT22;8808;52.478;13.378;2023-06-22T09:02:03;24.70;99.90
17381;DHT22;8808;52.478;13.378;2023-06-22T09:04:31;24.80;99.90
17381;DHT22;8808;52.478;13.378;2023-06-22T09:07:00;24.80;99.90
17381;DHT22;8808;52.478;13.378;2023-06-22T09:09:27;24.80;99.90
17381;DHT22;8808;52.478;13.378;2023-06-22T09:11:55;24.70;99.90
17381;DHT22;8808;52.478;13.378;2023-06-22T09:14:22;24.70;99.90
17381;DHT22;8808;52.478;13.378;2023-06-22T09:16:49;24.70;99.90
17381;DHT22;8808;52.478;13.378;2023-06-22T09:19:16;24.70;99.60
17381;DHT22;8808;52.478;13.378;2023-06-22T09:21:43;24.70;99.90
17381;DHT22;8808;52.478;13.378;2023-06-22T09:24:10;24.80;99.90
17381;DHT22;8808;52.478;13.378;2023-06-22T09:26:38;24.90;99.80
17381;DHT22;8808;52.478;13.378;2023-06-22T09:29:06;24.90;98.60
17381;DHT22;8808;52.478;13.378;2023-06-22T09:31:33;24.90;97.60
17381;DHT22;8808;52.478;13.378;2023-06-22T09:34:00;24.90;97.50
17381;DHT22;8808;52.478;13.378;2023-06-22T09:36:27;24.90;99.00
17381;DHT22;8808;52.478;13.378;2023-06-22T09:38:55;24.90;98.60
17381;DHT22;8808;52.478;13.378;2023-06-22T09:41:24;24.90;98.40
17381;DHT22;8808;52.478;13.378;2023-06-22T09:43:51;25.00;97.80
17381;DHT22;8808;52.478;13.378;2023-06-22T09:46:20;25.00;98.10
17381;DHT22;8808;52.478;13.378;2023-06-22T09:48:50;25.00;98.20
17381;DHT22;8808;52.478;13.378;2023-06-22T09:51:17;25.10;98.90
17381;DHT22;8808;52.478;13.378;2023-06-22T09:53:45;25.20;99.80
17381;DHT22;8808;52.478;13.378;2023-06-22T09:56:12;25.20;99.50
17381;DHT22;8808;52.478;13.378;2023-06-22T09:58:40;25.30;99.50
17381;DHT22;8808;52.478;13.378;2023-06-22T10:01:07;25.30;99.90
17381;DHT22;8808;52.478;13.378;2023-06-22T10:03:36;25.30;99.90
17381;DHT22;8808;52.478;13.378;2023-06-22T10:06:03;25.30;99.90
17381;DHT22;8808;52.478;13.378;2023-06-22T10:08:30;25.30;99.90
17381;DHT22;8808;52.478;13.378;2023-06-22T10:10:57;25.40;99.90
17381;DHT22;8808;52.478;13.378;2023-06-22T10:13:24;25.50;99.60
17381;DHT22;8808;52.478;13.378;2023-06-22T10:15:51;25.60;99.90
17381;DHT22;8808;52.478;13.378;2023-06-22T10:18:19;25.80;99.50
17381;DHT22;8808;52.478;13.378;2023-06-22T10:20:49;25.60;99.50
17381;DHT22;8808;52.478;13.378;2023-06-22T10:23:17;25.70;99.90
17381;DHT22;8808;52.478;13.378;2023-06-22T10:25:44;25.80;98.90
17381;DHT22;8808;52.478;13.378;2023-06-22T10:28:11;25.70;99.90
17381;DHT22;8808;52.478;13.378;2023-06-22T10:30:38;25.80;98.80
17381;DHT22;8808;52.478;13.378;2023-06-22T10:33:07;26.00;99.00
17381;DHT22;8808;52.478;13.378;2023-06-22T10:35:34;26.10;98.00
17381;DHT22;8808;52.478;13.378;2023-06-22T10:38:02;26.20;98.10
17381;DHT22;8808;52.478;13.378;2023-06-22T10:40:29;26.10;97.60
17381;DHT22;8808;52.478;13.378;2023-06-22T10:42:56;26.40;96.50
17381;DHT22;8808;52.478;13.378;2023-06-22T10:45:23;26.30;98.00
17381;DHT22;8808;52.478;13.378;2023-06-22T10:47:50;26.60;96.80
17381;DHT22;8808;52.478;13.378;2023-06-22T10:50:18;26.70;96.90
17381;DHT22;8808;52.478;13.378;2023-06-22T10:52:45;26.70;93.90
17381;DHT22;8808;52.478;13.378;2023-06-22T10:55:14;26.60;93.40
17381;DHT22;8808;52.478;13.378;2023-06-22T10:57:41;26.60;93.70
17381;DHT22;8808;52.478;13.378;2023-06-22T11:00:10;26.50;97.70
17381;DHT22;8808;52.478;13.378;2023-06-22T11:02:37;26.70;93.30
17381;DHT22;8808;52.478;13.378;2023-06-22T11:05:05;26.80;93.90
17381;DHT22;8808;52.478;13.378;2023-06-22T11:07:33;27.00;93.50
17381;DHT22;8808;52.478;13.378;2023-06-22T11:10:00;27.00;93.30
17381;DHT22;8808;52.478;13.378;2023-06-22T11:12:28;26.90;93.10
17381;DHT22;8808;52.478;13.378;2023-06-22T11:14:55;27.10;92.60
17381;DHT22;8808;52.478;13.378;2023-06-22T11:17:22;27.10;93.00
17381;DHT22;8808;52.478;13.378;2023-06-22T11:19:50;27.20;92.80
17381;DHT22;8808;52.478;13.378;2023-06-22T11:22:17;26.90;94.00
17381;DHT22;8808;52.478;13.378;2023-06-22T11:24:44;27.20;91.90
17381;DHT22;8808;52.478;13.378;2023-06-22T11:27:11;27.00;92.10
17381;DHT22;8808;52.478;13.378;2023-06-22T11:29:39;27.10;94.10
17381;DHT22;8808;52.478;13.378;2023-06-22T11:32:07;27.20;93.10
17381;DHT22;8808;52.478;13.378;2023-06-22T11:34:34;27.10;93.20
17381;DHT22;8808;52.478;13.378;2023-06-22T11:37:01;27.40;91.20
17381;DHT22;8808;52.478;13.378;2023-06-22T11:39:28;27.60;90.60
17381;DHT22;8808;52.478;13.378;2023-06-22T11:41:55;27.30;90.30
17381;DHT22;8808;52.478;13.378;2023-06-22T11:44:22;27.50;92.30
17381;DHT22;8808;52.478;13.378;2023-06-22T11:46:50;27.50;92.90
17381;DHT22;8808;52.478;13.378;2023-06-22T11:49:17;27.60;90.30
17381;DHT22;8808;52.478;13.378;2023-06-22T11:51:44;27.40;91.10
17381;DHT22;8808;52.478;13.378;2023-06-22T11:54:11;27.60;92.10
17381;DHT22;8808;52.478;13.378;2023-06-22T11:56:38;27.30;93.50
17381;DHT22;8808;52.478;13.378;2023-06-22T11:59:05;27.50;91.40
17381;DHT22;8808;52.478;13.378;2023-06-22T12:01:32;27.90;91.00
17381;DHT22;8808;52.478;13.378;2023-06-22T12:04:01;27.70;90.50
17381;DHT22;8808;52.478;13.378;2023-06-22T12:06:31;27.20;91.10
17381;DHT22;8808;52.478;13.378;2023-06-22T12:08:58;27.10;90.70
17381;DHT22;8808;52.478;13.378;2023-06-22T12:11:24;27.10;91.90
17381;DHT22;8808;52.478;13.378;2023-06-22T12:13:51;27.30;91.20
17381;DHT22;8808;52.478;13.378;2023-06-22T12:16:18;27.70;90.60
17381;DHT22;8808;52.478;13.378;2023-06-22T12:18:47;27.70;89.80
17381;DHT22;8808;52.478;13.378;2023-06-22T12:21:15;27.60;88.90
17381;DHT22;8808;52.478;13.378;2023-06-22T12:23:42;27.30;91.80
17381;DHT22;8808;52.478;13.378;2023-06-22T12:26:09;27.10;93.10
17381;DHT22;8808;52.478;13.378;2023-06-22T12:28:36;27.10;93.10
17381;DHT22;8808;52.478;13.378;2023-06-22T12:31:03;27.50;90.20
17381;DHT22;8808;52.478;13.378;2023-06-22T12:33:30;27.60;92.10
17381;DHT22;8808;52.478;13.378;2023-06-22T12:35:57;27.70;91.40
17381;DHT22;8808;52.478;13.378;2023-06-22T12:38:32;28.00;90.50
17381;DHT22;8808;52.478;13.378;2023-06-22T12:40:59;28.00;88.60
17381;DHT22;8808;52.478;13.378;2023-06-22T12:43:26;27.10;93.10
17381;DHT22;8808;52.478;13.378;2023-06-22T12:45:53;27.20;92.60
17381;DHT22;8808;52.478;13.378;2023-06-22T12:48:21;27.90;91.40
17381;DHT22;8808;52.478;13.378;2023-06-22T12:50:48;28.20;88.80
17381;DHT22;8808;52.478;13.378;2023-06-22T12:53:15;27.00;93.10
17381;DHT22;8808;52.478;13.378;2023-06-22T12:55:43;27.30;91.10
17381;DHT22;8808;52.478;13.378;2023-06-22T12:58:10;27.40;91.30
17381;DHT22;8808;52.478;13.378;2023-06-22T13:00:38;27.30;91.10
17381;DHT22;8808;52.478;13.378;2023-06-22T13:03:05;27.60;90.50
17381;DHT22;8808;52.478;13.378;2023-06-22T13:05:32;27.00;93.00
17381;DHT22;8808;52.478;13.378;2023-06-22T13:08:00;26.90;92.60
17381;DHT22;8808;52.478;13.378;2023-06-22T13:10:27;27.50;92.10
17381;DHT22;8808;52.478;13.378;2023-06-22T13:12:55;26.30;94.40
17381;DHT22;8808;52.478;13.378;2023-06-22T13:15:26;26.40;93.50
17381;DHT22;8808;52.478;13.378;2023-06-22T13:17:53;27.00;91.40
17381;DHT22;8808;52.478;13.378;2023-06-22T13:20:20;27.30;92.40
17381;DHT22;8808;52.478;13.378;2023-06-22T13:22:47;27.20;92.40
17381;DHT22;8808;52.478;13.378;2023-06-22T13:25:14;27.40;91.30
17381;DHT22;8808;52.478;13.378;2023-06-22T13:27:44;27.50;90.50
17381;DHT22;8808;52.478;13.378;2023-06-22T13:30:13;27.60;90.30
17381;DHT22;8808;52.478;13.378;2023-06-22T13:32:41;27.40;90.60
17381;DHT22;8808;52.478;13.378;2023-06-22T13:35:09;27.20;91.10
17381;DHT22;8808;52.478;13.378;2023-06-22T13:37:36;27.10;91.50
17381;DHT22;8808;52.478;13.378;2023-06-22T13:40:04;27.30;90.50
17381;DHT22;8808;52.478;13.378;2023-06-22T13:42:32;27.50;90.80
17381;DHT22;8808;52.478;13.378;2023-06-22T13:44:59;27.40;91.50
17381;DHT22;8808;52.478;13.378;2023-06-22T13:47:28;27.30;90.30
17381;DHT22;8808;52.478;13.378;2023-06-22T13:49:55;27.30;90.30
17381;DHT22;8808;52.478;13.378;2023-06-22T13:52:23;27.20;91.70
17381;DHT22;8808;52.478;13.378;2023-06-22T13:54:50;27.20;91.20
17381;DHT22;8808;52.478;13.378;2023-06-22T13:57:17;27.30;91.00
17381;DHT22;8808;52.478;13.378;2023-06-22T13:59:44;27.20;92.10
17381;DHT22;8808;52.478;13.378;2023-06-22T14:02:11;26.90;90.60
17381;DHT22;8808;52.478;13.378;2023-06-22T14:04:39;27.00;91.90
17381;DHT22;8808;52.478;13.378;2023-06-22T14:07:06;27.00;92.40
17381;DHT22;8808;52.478;13.378;2023-06-22T14:09:33;26.90;91.80
17381;DHT22;8808;52.478;13.378;2023-06-22T14:12:03;27.00;92.60
17381;DHT22;8808;52.478;13.378;2023-06-22T14:14:30;26.90;92.80
17381;DHT22;8808;52.478;13.378;2023-06-22T14:16:57;26.30;93.70
17381;DHT22;8808;52.478;13.378;2023-06-22T14:19:24;27.10;91.80
17381;DHT22;8808;52.478;13.378;2023-06-22T14:21:52;27.40;91.00
17381;DHT22;8808;52.478;13.378;2023-06-22T14:24:20;27.40;91.10
17381;DHT22;8808;52.478;13.378;2023-06-22T14:26:47;27.10;91.40
17381;DHT22;8808;52.478;13.378;2023-06-22T14:29:14;27.00;91.30
17381;DHT22;8808;52.478;13.378;2023-06-22T14:31:44;26.80;92.90
17381;DHT22;8808;52.478;13.378;2023-06-22T14:34:11;26.60;92.00
17381;DHT22;8808;52.478;13.378;2023-06-22T14:36:38;27.00;92.80
17381;DHT22;8808;52.478;13.378;2023-06-22T14:39:06;27.20;90.80
17381;DHT22;8808;52.478;13.378;2023-06-22T14:41:33;27.20;92.00
17381;DHT22;8808;52.478;13.378;2023-06-22T14:44:00;27.10;92.30
17381;DHT22;8808;52.478;13.378;2023-06-22T14:46:27;27.40;90.50
17381;DHT22;8808;52.478;13.378;2023-06-22T14:48:54;27.20;91.40
17381;DHT22;8808;52.478;13.378;2023-06-22T14:51:21;26.70;92.80
17381;DHT22;8808;52.478;13.378;2023-06-22T14:53:48;26.60;92.10
17381;DHT22;8808;52.478;13.378;2023-06-22T14:56:16;27.10;91.20
17381;DHT22;8808;52.478;13.378;2023-06-22T14:58:43;27.30;91.50
17381;DHT22;8808;52.478;13.378;2023-06-22T15:01:11;27.40;90.50
17381;DHT22;8808;52.478;13.378;2023-06-22T15:03:38;27.40;90.70
17381;DHT22;8808;52.478;13.378;2023-06-22T15:06:05;27.00;92.50
17381;DHT22;8808;52.478;13.378;2023-06-22T15:08:33;27.20;91.40
17381;DHT22;8808;52.478;13.378;2023-06-22T15:11:00;27.40;90.60
17381;DHT22;8808;52.478;13.378;2023-06-22T15:13:30;26.90;92.00
17381;DHT22;8808;52.478;13.378;2023-06-22T15:15:59;27.10;91.00
17381;DHT22;8808;52.478;13.378;2023-06-22T15:18:26;27.20;90.70
17381;DHT22;8808;52.478;13.378;2023-06-22T15:20:53;27.40;90.50
17381;DHT22;8808;52.478;13.378;2023-06-22T15:23:20;27.20;90.90
17381;DHT22;8808;52.478;13.378;2023-06-22T15:25:47;27.10;91.00
17381;DHT22;8808;52.478;13.378;2023-06-22T15:28:14;27.00;91.60
17381;DHT22;8808;52.478;13.378;2023-06-22T15:30:43;26.90;91.70
17381;DHT22;8808;52.478;13.378;2023-06-22T15:33:10;26.80;91.30
17381;DHT22;8808;52.478;13.378;2023-06-22T15:35:37;27.00;91.10